sensor_id;sensor_type;location;lat;lon;timestamp;temperature;humidity
15426;DHT22;7812;50.072;7.036;2023-04-03T00:00:49;4.30;99.90
15426;DHT22;7812;50.072;7.036;2023-04-03T00:03:16;4.30;99.90
15426;DHT22;7812;50.072;7.036;2023-04-03T00:05:42;4.30;99.90
15426;DHT22;7812;50.072;7.036;2023-04-03T00:08:07;4.40;99.90
15426;DHT22;7812;50.072;7.036;2023-04-03T00:10:37;4.40;99.90
15426;DHT22;7812;50.072;7.036;2023-04-03T00:13:04;4.40;99.90
15426;DHT22;7812;50.072;7.036;2023-04-03T00:15:30;4.30;99.90
15426;DHT22;7812;50.072;7.036;2023-04-03T00:17:56;4.20;99.90
15426;DHT22;7812;50.072;7.036;2023-04-03T00:20:22;4.20;99.90
15426;DHT22;7812;50.072;7.036;2023-04-03T00:22:48;4.20;99.90
15426;DHT22;7812;50.072;7.036;2023-04-03T00:25:14;4.10;99.90
15426;DHT22;7812;50.072;7.036;2023-04-03T00:27:40;4.10;99.90
15426;DHT22;7812;50.072;7.036;2023-04-03T00:30:16;4.00;99.90
15426;DHT22;7812;50.072;7.036;2023-04-03T00:32:42;4.00;99.90
15426;DHT22;7812;50.072;7.036;2023-04-03T00:35:09;4.10;99.90
15426;DHT22;7812;50.072;7.036;2023-04-03T00:37:35;4.00;99.90
15426;DHT22;7812;50.072;7.036;2023-04-03T00:40:01;4.10;99.90
15426;DHT22;7812;50.072;7.036;2023-04-03T00:42:27;4.10;99.90
15426;DHT22;7812;50.072;7.036;2023-04-03T00:47:23;4.10;99.90
15426;DHT22;7812;50.072;7.036;2023-04-03T00:49:50;4.10;99.90
15426;DHT22;7812;50.072;7.036;2023-04-03T00:52:18;4.10;99.90
15426;DHT22;7812;50.072;7.036;2023-04-03T00:54:47;4.10;99.90
15426;DHT22;7812;50.072;7.036;2023-04-03T00:57:14;4.00;99.90
15426;DHT22;7812;50.072;7.036;2023-04-03T00:59:46;3.90;99.90
15426;DHT22;7812;50.072;7.036;2023-04-03T01:02:12;3.90;99.90
15426;DHT22;7812;50.072;7.036;2023-04-03T01:04:40;3.90;99.90
15426;DHT22;7812;50.072;7.036;2023-04-03T01:07:10;3.90;99.90
15426;DHT22;7812;50.072;7.036;2023-04-03T01:09:37;3.80;99.90
15426;DHT22;7812;50.072;7.036;2023-04-03T01:14:50;3.70;99.90
15426;DHT22;7812;50.072;7.036;2023-04-03T01:25:45;3.50;99.90
15426;DHT22;7812;50.072;7.036;2023-04-03T01:28:17;3.50;99.90
15426;DHT22;7812;50.072;7.036;2023-04-03T01:33:14;3.50;99.90
15426;DHT22;7812;50.072;7.036;2023-04-03T01:35:40;3.50;99.90
15426;DHT22;7812;50.072;7.036;2023-04-03T01:38:06;3.40;99.90
15426;DHT22;7812;50.072;7.036;2023-04-03T01:40:32;3.50;99.90
15426;DHT22;7812;50.072;7.036;2023-04-03T01:42:58;3.50;99.90
15426;DHT22;7812;50.072;7.036;2023-04-03T01:45:23;3.50;99.90
15426;DHT22;7812;50.072;7.036;2023-04-03T01:47:49;3.60;99.90
15426;DHT22;7812;50.072;7.036;2023-04-03T01:50:15;3.70;99.90
15426;DHT22;7812;50.072;7.036;2023-04-03T01:52:41;3.70;99.90
15426;DHT22;7812;50.072;7.036;2023-04-03T01:55:06;3.70;99.90
15426;DHT22;7812;50.072;7.036;2023-04-03T01:57:32;3.60;99.90
15426;DHT22;7812;50.072;7.036;2023-04-03T01:59:58;3.70;99.90
15426;DHT22;7812;50.072;7.036;2023-04-03T02:02:23;3.80;99.90
15426;DHT22;7812;50.072;7.036;2023-04-03T02:04:50;3.70;99.90
15426;DHT22;7812;50.072;7.036;2023-04-03T02:07:15;3.70;99.90
15426;DHT22;7812;50.072;7.036;2023-04-03T02:09:41;3.60;99.90
15426;DHT22;7812;50.072;7.036;2023-04-03T02:12:06;3.60;99.90
15426;DHT22;7812;50.072;7.036;2023-04-03T02:14:32;3.60;99.90
15426;DHT22;7812;50.072;7.036;2023-04-03T02:16:58;3.50;99.90
15426;DHT22;7812;50.072;7.036;2023-04-03T02:19:26;3.50;99.90
15426;DHT22;7812;50.072;7.036;2023-04-03T02:21:51;3.50;99.90
15426;DHT22;7812;50.072;7.036;2023-04-03T02:24:17;3.40;99.90
15426;DHT22;7812;50.072;7.036;2023-04-03T02:26:42;3.30;99.90
15426;DHT22;7812;50.072;7.036;2023-04-03T02:29:08;3.30;99.90
15426;DHT22;7812;50.072;7.036;2023-04-03T02:31:34;3.20;99.90
15426;DHT22;7812;50.072;7.036;2023-04-03T02:33:59;3.10;99.90
15426;DHT22;7812;50.072;7.036;2023-04-03T02:36:25;2.90;99.90
15426;DHT22;7812;50.072;7.036;2023-04-03T02:38:51;2.80;99.90
15426;DHT22;7812;50.072;7.036;2023-04-03T02:41:16;2.80;99.90
15426;DHT22;7812;50.072;7.036;2023-04-03T02:43:42;2.80;99.90
15426;DHT22;7812;50.072;7.036;2023-04-03T02:46:08;2.70;99.90
15426;DHT22;7812;50.072;7.036;2023-04-03T02:48:34;2.70;99.90
15426;DHT22;7812;50.072;7.036;2023-04-03T02:51:00;2.70;99.90
15426;DHT22;7812;50.072;7.036;2023-04-03T02:53:26;2.50;99.90
15426;DHT22;7812;50.072;7.036;2023-04-03T02:55:52;2.40;99.90
15426;DHT22;7812;50.072;7.036;2023-04-03T02:58:17;2.30;99.90
15426;DHT22;7812;50.072;7.036;2023-04-03T03:00:43;2.20;99.90
15426;DHT22;7812;50.072;7.036;2023-04-03T03:03:09;2.10;99.90
15426;DHT22;7812;50.072;7.036;2023-04-03T03:05:34;2.10;99.90
15426;DHT22;7812;50.072;7.036;2023-04-03T03:08:01;2.10;99.90
15426;DHT22;7812;50.072;7.036;2023-04-03T03:10:27;2.00;99.90
15426;DHT22;7812;50.072;7.036;2023-04-03T03:12:53;2.00;99.90
15426;DHT22;7812;50.072;7.036;2023-04-03T03:15:18;2.10;99.90
15426;DHT22;7812;50.072;7.036;2023-04-03T03:17:44;2.10;99.90
15426;DHT22;7812;50.072;7.036;2023-04-03T03:20:11;2.10;99.90
15426;DHT22;7812;50.072;7.036;2023-04-03T03:22:38;2.10;99.90
15426;DHT22;7812;50.072;7.036;2023-04-03T03:25:04;2.10;99.90
15426;DHT22;7812;50.072;7.036;2023-04-03T03:27:30;1.90;99.90
15426;DHT22;7812;50.072;7.036;2023-04-03T03:29:55;2.00;99.90
15426;DHT22;7812;50.072;7.036;2023-04-03T03:32:21;2.10;99.90
15426;DHT22;7812;50.072;7.036;2023-04-03T03:34:47;2.20;99.90
15426;DHT22;7812;50.072;7.036;2023-04-03T03:37:12;2.20;99.90
15426;DHT22;7812;50.072;7.036;2023-04-03T03:39:38;2.20;99.90
15426;DHT22;7812;50.072;7.036;2023-04-03T03:42:04;2.30;99.90
15426;DHT22;7812;50.072;7.036;2023-04-03T03:44:29;2.40;99.90
15426;DHT22;7812;50.072;7.036;2023-04-03T03:46:55;2.30;99.90
15426;DHT22;7812;50.072;7.036;2023-04-03T03:49:21;2.40;99.90
15426;DHT22;7812;50.072;7.036;2023-04-03T03:51:47;2.50;99.90
15426;DHT22;7812;50.072;7.036;2023-04-03T03:54:13;2.60;99.90
15426;DHT22;7812;50.072;7.036;2023-04-03T03:56:39;2.40;99.90
15426;DHT22;7812;50.072;7.036;2023-04-03T03:59:04;2.40;99.90
15426;DHT22;7812;50.072;7.036;2023-04-03T04:01:30;2.50;99.90
15426;DHT22;7812;50.072;7.036;2023-04-03T04:03:56;2.50;99.90
15426;DHT22;7812;50.072;7.036;2023-04-03T04:06:22;2.50;99.90
15426;DHT22;7812;50.072;7.036;2023-04-03T04:08:48;2.50;99.90
15426;DHT22;7812;50.072;7.036;2023-04-03T04:11:13;2.40;99.90
15426;DHT22;7812;50.072;7.036;2023-04-03T04:13:39;2.40;99.90
15426;DHT22;7812;50.072;7.036;2023-04-03T04:16:06;2.50;99.90
15426;DHT22;7812;50.072;7.036;2023-04-03T04:18:32;2.50;99.90
15426;DHT22;7812;50.072;7.036;2023-04-03T04:20:58;2.40;99.90
15426;DHT22;7812;50.072;7.036;2023-04-03T04:23:23;2.40;99.90
15426;DHT22;7812;50.072;7.036;2023-04-03T04:25:50;2.30;99.90
15426;DHT22;7812;50.072;7.036;2023-04-03T04:28:17;2.40;99.90
15426;DHT22;7812;50.072;7.036;2023-04-03T04:30:42;2.30;99.90
15426;DHT22;7812;50.072;7.036;2023-04-03T04:33:09;2.40;99.90
15426;DHT22;7812;50.072;7.036;2023-04-03T04:35:36;2.50;99.90
15426;DHT22;7812;50.072;7.036;2023-04-03T04:38:02;2.50;99.90
15426;DHT22;7812;50.072;7.036;2023-04-03T04:40:28;2.60;99.90
15426;DHT22;7812;50.072;7.036;2023-04-03T04:42:54;2.50;99.90
15426;DHT22;7812;50.072;7.036;2023-04-03T04:45:20;2.50;99.90
15426;DHT22;7812;50.072;7.036;2023-04-03T04:47:46;2.60;99.90
15426;DHT22;7812;50.072;7.036;2023-04-03T04:50:12;2.60;99.90
15426;DHT22;7812;50.072;7.036;2023-04-03T04:52:38;2.50;99.90
15426;DHT22;7812;50.072;7.036;2023-04-03T04:55:04;2.50;99.90
15426;DHT22;7812;50.072;7.036;2023-04-03T04:57:30;2.50;99.90
15426;DHT22;7812;50.072;7.036;2023-04-03T04:59:56;2.40;99.90
15426;DHT22;7812;50.072;7.036;2023-04-03T05:02:21;2.30;99.90
15426;DHT22;7812;50.072;7.036;2023-04-03T05:04:47;2.20;99.90
15426;DHT22;7812;50.072;7.036;2023-04-03T05:07:15;2.00;99.90
15426;DHT22;7812;50.072;7.036;2023-04-03T05:09:41;1.90;99.90
15426;DHT22;7812;50.072;7.036;2023-04-03T05:12:08;1.70;99.90
15426;DHT22;7812;50.072;7.036;2023-04-03T05:14:33;1.70;99.90
15426;DHT22;7812;50.072;7.036;2023-04-03T05:16:59;1.60;99.90
15426;DHT22;7812;50.072;7.036;2023-04-03T05:19:25;1.60;99.90
15426;DHT22;7812;50.072;7.036;2023-04-03T05:21:50;1.60;99.90
15426;DHT22;7812;50.072;7.036;2023-04-03T05:24:16;1.50;99.90
15426;DHT22;7812;50.072;7.036;2023-04-03T05:26:43;1.60;99.90
15426;DHT22;7812;50.072;7.036;2023-04-03T05:29:09;1.60;99.90
15426;DHT22;7812;50.072;7.036;2023-04-03T05:31:34;1.60;99.90
15426;DHT22;7812;50.072;7.036;2023-04-03T05:34:00;1.70;99.90
15426;DHT22;7812;50.072;7.036;2023-04-03T05:36:26;1.70;99.90
15426;DHT22;7812;50.072;7.036;2023-04-03T05:38:52;1.80;99.90
15426;DHT22;7812;50.072;7.036;2023-04-03T05:41:18;1.80;99.90
15426;DHT22;7812;50.072;7.036;2023-04-03T05:43:46;1.90;99.90
15426;DHT22;7812;50.072;7.036;2023-04-03T05:46:12;1.80;99.90
15426;DHT22;7812;50.072;7.036;2023-04-03T05:48:39;1.70;99.90
15426;DHT22;7812;50.072;7.036;2023-04-03T05:51:05;1.70;99.90
15426;DHT22;7812;50.072;7.036;2023-04-03T05:53:35;1.80;99.90
15426;DHT22;7812;50.072;7.036;2023-04-03T05:56:03;1.90;99.90
15426;DHT22;7812;50.072;7.036;2023-04-03T05:58:28;1.80;99.90
15426;DHT22;7812;50.072;7.036;2023-04-03T06:00:54;1.90;99.90
15426;DHT22;7812;50.072;7.036;2023-04-03T06:03:20;2.00;99.90
15426;DHT22;7812;50.072;7.036;2023-04-03T06:05:46;1.90;99.90
15426;DHT22;7812;50.072;7.036;2023-04-03T06:08:12;2.00;99.90
15426;DHT22;7812;50.072;7.036;2023-04-03T06:10:38;2.20;99.90
15426;DHT22;7812;50.072;7.036;2023-04-03T06:13:04;2.70;99.90
15426;DHT22;7812;50.072;7.036;2023-04-03T06:15:30;4.10;99.90
15426;DHT22;7812;50.072;7.036;2023-04-03T06:17:56;5.50;99.90
15426;DHT22;7812;50.072;7.036;2023-04-03T06:20:21;6.70;99.90
15426;DHT22;7812;50.072;7.036;2023-04-03T06:22:47;7.30;99.90
15426;DHT22;7812;50.072;7.036;2023-04-03T06:25:13;8.20;99.90
15426;DHT22;7812;50.072;7.036;2023-04-03T06:27:39;8.30;99.90
15426;DHT22;7812;50.072;7.036;2023-04-03T06:30:06;8.30;99.90
15426;DHT22;7812;50.072;7.036;2023-04-03T06:32:32;8.60;99.90
15426;DHT22;7812;50.072;7.036;2023-04-03T06:34:58;7.60;99.90
15426;DHT22;7812;50.072;7.036;2023-04-03T06:37:24;8.60;99.90
15426;DHT22;7812;50.072;7.036;2023-04-03T06:39:51;8.70;99.90
15426;DHT22;7812;50.072;7.036;2023-04-03T06:42:17;6.80;99.90
15426;DHT22;7812;50.072;7.036;2023-04-03T06:44:43;6.20;99.90
15426;DHT22;7812;50.072;7.036;2023-04-03T06:47:13;6.80;99.90
15426;DHT22;7812;50.072;7.036;2023-04-03T06:49:40;7.30;99.90
15426;DHT22;7812;50.072;7.036;2023-04-03T06:52:05;8.60;99.90
15426;DHT22;7812;50.072;7.036;2023-04-03T06:54:31;7.70;99.90
15426;DHT22;7812;50.072;7.036;2023-04-03T06:56:57;8.20;99.90
15426;DHT22;7812;50.072;7.036;2023-04-03T06:59:23;8.30;99.90
15426;DHT22;7812;50.072;7.036;2023-04-03T07:01:53;7.60;99.90
15426;DHT22;7812;50.072;7.036;2023-04-03T07:04:19;8.70;99.90
15426;DHT22;7812;50.072;7.036;2023-04-03T07:06:49;8.80;99.90
15426;DHT22;7812;50.072;7.036;2023-04-03T07:09:15;10.20;99.90
15426;DHT22;7812;50.072;7.036;2023-04-03T07:11:41;9.50;99.90
15426;DHT22;7812;50.072;7.036;2023-04-03T07:14:08;9.50;99.90
15426;DHT22;7812;50.072;7.036;2023-04-03T07:16:34;10.90;99.90
15426;DHT22;7812;50.072;7.036;2023-04-03T07:19:01;11.90;99.90
15426;DHT22;7812;50.072;7.036;2023-04-03T07:21:27;12.10;99.90
15426;DHT22;7812;50.072;7.036;2023-04-03T07:23:53;12.20;99.90
15426;DHT22;7812;50.072;7.036;2023-04-03T07:26:19;12.20;99.90
15426;DHT22;7812;50.072;7.036;2023-04-03T07:28:46;12.70;99.90
15426;DHT22;7812;50.072;7.036;2023-04-03T07:31:14;13.00;99.90
15426;DHT22;7812;50.072;7.036;2023-04-03T07:33:41;10.40;99.90
15426;DHT22;7812;50.072;7.036;2023-04-03T07:36:08;11.40;99.90
15426;DHT22;7812;50.072;7.036;2023-04-03T07:38:36;11.00;99.90
15426;DHT22;7812;50.072;7.036;2023-04-03T07:41:02;11.00;99.90
15426;DHT22;7812;50.072;7.036;2023-04-03T07:43:28;11.00;99.90
15426;DHT22;7812;50.072;7.036;2023-04-03T07:45:54;10.90;99.90
15426;DHT22;7812;50.072;7.036;2023-04-03T07:48:24;10.40;99.90
15426;DHT22;7812;50.072;7.036;2023-04-03T07:50:51;10.50;99.90
15426;DHT22;7812;50.072;7.036;2023-04-03T07:53:17;9.90;99.90
15426;DHT22;7812;50.072;7.036;2023-04-03T07:55:46;9.70;99.90
15426;DHT22;7812;50.072;7.036;2023-04-03T07:58:17;10.90;99.90
15426;DHT22;7812;50.072;7.036;2023-04-03T08:00:44;11.60;99.90
15426;DHT22;7812;50.072;7.036;2023-04-03T08:03:10;11.20;99.90
15426;DHT22;7812;50.072;7.036;2023-04-03T08:05:40;12.40;99.90
15426;DHT22;7812;50.072;7.036;2023-04-03T08:08:14;11.00;99.90
15426;DHT22;7812;50.072;7.036;2023-04-03T08:10:41;11.10;99.90
15426;DHT22;7812;50.072;7.036;2023-04-03T08:13:09;12.10;99.90
15426;DHT22;7812;50.072;7.036;2023-04-03T08:15:35;11.80;99.90
15426;DHT22;7812;50.072;7.036;2023-04-03T08:18:02;11.70;99.90
15426;DHT22;7812;50.072;7.036;2023-04-03T08:20:28;13.00;99.90
15426;DHT22;7812;50.072;7.036;2023-04-03T08:22:53;11.40;99.90
15426;DHT22;7812;50.072;7.036;2023-04-03T08:25:19;11.40;99.90
15426;DHT22;7812;50.072;7.036;2023-04-03T08:27:45;13.10;99.90
15426;DHT22;7812;50.072;7.036;2023-04-03T08:30:12;13.60;99.90
15426;DHT22;7812;50.072;7.036;2023-04-03T08:32:38;15.60;99.90
15426;DHT22;7812;50.072;7.036;2023-04-03T08:35:04;17.00;99.90
15426;DHT22;7812;50.072;7.036;2023-04-03T08:37:30;14.30;99.90
15426;DHT22;7812;50.072;7.036;2023-04-03T08:39:57;13.50;99.90
15426;DHT22;7812;50.072;7.036;2023-04-03T08:47:47;14.50;99.90
15426;DHT22;7812;50.072;7.036;2023-04-03T08:50:29;12.90;99.90
15426;DHT22;7812;50.072;7.036;2023-04-03T08:52:58;12.70;99.90
15426;DHT22;7812;50.072;7.036;2023-04-03T08:55:40;14.10;99.90
15426;DHT22;7812;50.072;7.036;2023-04-03T08:58:14;15.10;99.90
15426;DHT22;7812;50.072;7.036;2023-04-03T09:03:16;13.40;99.90
15426;DHT22;7812;50.072;7.036;2023-04-03T09:10:51;10.50;99.90
15426;DHT22;7812;50.072;7.036;2023-04-03T09:15:48;9.60;99.90
15426;DHT22;7812;50.072;7.036;2023-04-03T09:18:21;9.30;99.90
15426;DHT22;7812;50.072;7.036;2023-04-03T09:26:13;10.40;99.90
15426;DHT22;7812;50.072;7.036;2023-04-03T09:28:40;10.60;99.90
15426;DHT22;7812;50.072;7.036;2023-04-03T09:31:20;9.60;99.90
15426;DHT22;7812;50.072;7.036;2023-04-03T09:33:49;10.10;99.90
15426;DHT22;7812;50.072;7.036;2023-04-03T09:39:14;13.50;99.90
15426;DHT22;7812;50.072;7.036;2023-04-03T09:41:42;11.20;99.90
15426;DHT22;7812;50.072;7.036;2023-04-03T09:44:24;9.80;99.90
15426;DHT22;7812;50.072;7.036;2023-04-03T09:46:50;9.40;99.90
15426;DHT22;7812;50.072;7.036;2023-04-03T09:49:17;10.20;99.90
15426;DHT22;7812;50.072;7.036;2023-04-03T09:51:44;10.10;99.90
15426;DHT22;7812;50.072;7.036;2023-04-03T09:54:33;9.70;99.90
15426;DHT22;7812;50.072;7.036;2023-04-03T09:57:06;9.30;99.90
15426;DHT22;7812;50.072;7.036;2023-04-03T09:59:33;10.20;99.90
15426;DHT22;7812;50.072;7.036;2023-04-03T10:02:23;10.00;99.90
15426;DHT22;7812;50.072;7.036;2023-04-03T10:04:54;9.70;99.90
15426;DHT22;7812;50.072;7.036;2023-04-03T10:07:37;8.50;99.90
15426;DHT22;7812;50.072;7.036;2023-04-03T10:10:20;9.50;99.90
15426;DHT22;7812;50.072;7.036;2023-04-03T10:12:48;10.40;99.90
15426;DHT22;7812;50.072;7.036;2023-04-03T10:15:16;10.20;99.90
15426;DHT22;7812;50.072;7.036;2023-04-03T10:18:07;9.70;99.90
15426;DHT22;7812;50.072;7.036;2023-04-03T10:20:45;10.30;99.90
15426;DHT22;7812;50.072;7.036;2023-04-03T10:23:27;12.50;99.90
15426;DHT22;7812;50.072;7.036;2023-04-03T10:28:52;12.70;99.90
15426;DHT22;7812;50.072;7.036;2023-04-03T10:47:20;12.80;97.60
15426;DHT22;7812;50.072;7.036;2023-04-03T10:52:47;11.60;97.20
15426;DHT22;7812;50.072;7.036;2023-04-03T10:58:03;10.80;99.90
15426;DHT22;7812;50.072;7.036;2023-04-03T11:00:33;12.90;99.90
15426;DHT22;7812;50.072;7.036;2023-04-03T11:03:05;13.80;95.30
15426;DHT22;7812;50.072;7.036;2023-04-03T11:05:44;12.60;94.70
15426;DHT22;7812;50.072;7.036;2023-04-03T11:11:09;11.90;96.50
15426;DHT22;7812;50.072;7.036;2023-04-03T11:13:55;14.00;94.90
15426;DHT22;7812;50.072;7.036;2023-04-03T11:16:28;15.00;94.50
15426;DHT22;7812;50.072;7.036;2023-04-03T11:19:05;15.80;91.70
15426;DHT22;7812;50.072;7.036;2023-04-03T11:21:44;14.10;94.00
15426;DHT22;7812;50.072;7.036;2023-04-03T11:24:26;15.40;93.10
15426;DHT22;7812;50.072;7.036;2023-04-03T11:26:54;16.30;90.40
15426;DHT22;7812;50.072;7.036;2023-04-03T11:29:29;14.70;90.00
15426;DHT22;7812;50.072;7.036;2023-04-03T11:34:53;13.30;91.80
15426;DHT22;7812;50.072;7.036;2023-04-03T11:37:34;12.60;92.00
15426;DHT22;7812;50.072;7.036;2023-04-03T11:42:40;11.40;96.50
15426;DHT22;7812;50.072;7.036;2023-04-03T11:47:52;11.80;95.90
15426;DHT22;7812;50.072;7.036;2023-04-03T11:53:32;12.10;94.50
15426;DHT22;7812;50.072;7.036;2023-04-03T11:56:02;12.40;94.70
15426;DHT22;7812;50.072;7.036;2023-04-03T11:58:34;11.80;95.60
15426;DHT22;7812;50.072;7.036;2023-04-03T12:08:52;14.80;92.00
15426;DHT22;7812;50.072;7.036;2023-04-03T12:11:31;13.60;93.70
15426;DHT22;7812;50.072;7.036;2023-04-03T12:46:21;12.80;89.90
15426;DHT22;7812;50.072;7.036;2023-04-03T12:48:56;11.90;91.60
15426;DHT22;7812;50.072;7.036;2023-04-03T12:54:00;10.60;92.90
15426;DHT22;7812;50.072;7.036;2023-04-03T12:56:30;10.50;95.20
15426;DHT22;7812;50.072;7.036;2023-04-03T13:01:38;11.40;93.30
15426;DHT22;7812;50.072;7.036;2023-04-03T13:04:06;11.20;93.80
15426;DHT22;7812;50.072;7.036;2023-04-03T13:06:38;11.40;93.20
15426;DHT22;7812;50.072;7.036;2023-04-03T13:09:14;11.90;93.50
15426;DHT22;7812;50.072;7.036;2023-04-03T13:11:44;11.40;93.70
15426;DHT22;7812;50.072;7.036;2023-04-03T13:14:19;10.80;95.00
15426;DHT22;7812;50.072;7.036;2023-04-03T13:19:24;11.50;95.50
15426;DHT22;7812;50.072;7.036;2023-04-03T13:24:25;11.10;93.30
15426;DHT22;7812;50.072;7.036;2023-04-03T13:26:51;11.80;92.40
15426;DHT22;7812;50.072;7.036;2023-04-03T13:29:30;10.40;93.80
15426;DHT22;7812;50.072;7.036;2023-04-03T13:31:57;10.20;95.20
15426;DHT22;7812;50.072;7.036;2023-04-03T13:34:25;9.80;95.40
15426;DHT22;7812;50.072;7.036;2023-04-03T13:41:50;9.50;95.70
15426;DHT22;7812;50.072;7.036;2023-04-03T13:46:50;9.40;95.70
15426;DHT22;7812;50.072;7.036;2023-04-03T13:49:37;9.60;95.70
15426;DHT22;7812;50.072;7.036;2023-04-03T13:52:29;9.30;97.70
15426;DHT22;7812;50.072;7.036;2023-04-03T13:55:00;9.80;97.10
15426;DHT22;7812;50.072;7.036;2023-04-03T13:57:27;9.70;96.40
15426;DHT22;7812;50.072;7.036;2023-04-03T13:59:53;9.70;94.10
15426;DHT22;7812;50.072;7.036;2023-04-03T14:02:21;9.40;94.60
15426;DHT22;7812;50.072;7.036;2023-04-03T14:04:56;9.40;93.50
15426;DHT22;7812;50.072;7.036;2023-04-03T14:07:24;9.10;92.40
15426;DHT22;7812;50.072;7.036;2023-04-03T14:09:50;9.30;93.40
15426;DHT22;7812;50.072;7.036;2023-04-03T14:12:29;9.20;93.10
15426;DHT22;7812;50.072;7.036;2023-04-03T14:14:55;9.00;95.30
15426;DHT22;7812;50.072;7.036;2023-04-03T14:17:24;9.60;93.00
15426;DHT22;7812;50.072;7.036;2023-04-03T14:19:50;9.70;92.50
15426;DHT22;7812;50.072;7.036;2023-04-03T14:22:28;9.60;92.80
15426;DHT22;7812;50.072;7.036;2023-04-03T14:24:54;9.20;92.40
15426;DHT22;7812;50.072;7.036;2023-04-03T14:27:28;9.60;92.70
15426;DHT22;7812;50.072;7.036;2023-04-03T14:29:56;9.90;93.40
15426;DHT22;7812;50.072;7.036;2023-04-03T14:32:24;9.50;92.20
15426;DHT22;7812;50.072;7.036;2023-04-03T14:34:51;9.30;92.60
15426;DHT22;7812;50.072;7.036;2023-04-03T14:37:21;9.10;92.50
15426;DHT22;7812;50.072;7.036;2023-04-03T14:39:49;9.20;93.80
15426;DHT22;7812;50.072;7.036;2023-04-03T14:42:21;8.70;91.30
15426;DHT22;7812;50.072;7.036;2023-04-03T14:44:47;8.40;92.30
15426;DHT22;7812;50.072;7.036;2023-04-03T14:47:16;8.40;92.70
15426;DHT22;7812;50.072;7.036;2023-04-03T14:49:42;8.50;92.40
15426;DHT22;7812;50.072;7.036;2023-04-03T14:52:29;8.30;91.50
15426;DHT22;7812;50.072;7.036;2023-04-03T14:54:56;7.90;92.00
15426;DHT22;7812;50.072;7.036;2023-04-03T14:57:24;8.20;91.70
15426;DHT22;7812;50.072;7.036;2023-04-03T14:59:50;8.00;90.40
15426;DHT22;7812;50.072;7.036;2023-04-03T15:02:29;8.10;91.50
15426;DHT22;7812;50.072;7.036;2023-04-03T15:04:56;8.50;92.40
15426;DHT22;7812;50.072;7.036;2023-04-03T15:07:24;8.50;92.40
15426;DHT22;7812;50.072;7.036;2023-04-03T15:09:50;8.80;93.10
15426;DHT22;7812;50.072;7.036;2023-04-03T15:12:16;8.90;92.70
15426;DHT22;7812;50.072;7.036;2023-04-03T15:14:42;8.90;91.70
15426;DHT22;7812;50.072;7.036;2023-04-03T15:17:15;8.60;91.40
15426;DHT22;7812;50.072;7.036;2023-04-03T15:19:42;8.50;91.70
15426;DHT22;7812;50.072;7.036;2023-04-03T15:22:18;8.20;91.20
15426;DHT22;7812;50.072;7.036;2023-04-03T15:24:44;7.80;91.90
15426;DHT22;7812;50.072;7.036;2023-04-03T15:27:12;8.00;92.20
15426;DHT22;7812;50.072;7.036;2023-04-03T15:29:39;7.90;91.80
15426;DHT22;7812;50.072;7.036;2023-04-03T15:32:05;8.20;93.30
15426;DHT22;7812;50.072;7.036;2023-04-03T15:34:32;8.30;91.60
15426;DHT22;7812;50.072;7.036;2023-04-03T15:36:57;8.50;92.80
15426;DHT22;7812;50.072;7.036;2023-04-03T15:39:25;8.40;91.40
15426;DHT22;7812;50.072;7.036;2023-04-03T15:41:51;8.20;91.20
15426;DHT22;7812;50.072;7.036;2023-04-03T15:44:18;8.00;92.00
15426;DHT22;7812;50.072;7.036;2023-04-03T15:46:47;8.10;93.30
15426;DHT22;7812;50.072;7.036;2023-04-03T15:49:17;8.10;92.00
15426;DHT22;7812;50.072;7.036;2023-04-03T15:51:44;7.60;91.30
15426;DHT22;7812;50.072;7.036;2023-04-03T15:54:10;7.70;93.20
15426;DHT22;7812;50.072;7.036;2023-04-03T15:56:35;7.80;92.70
15426;DHT22;7812;50.072;7.036;2023-04-03T15:59:01;7.90;92.60
15426;DHT22;7812;50.072;7.036;2023-04-03T16:01:27;8.00;94.00
15426;DHT22;7812;50.072;7.036;2023-04-03T16:03:53;7.90;93.70
15426;DHT22;7812;50.072;7.036;2023-04-03T16:06:19;8.10;93.90
15426;DHT22;7812;50.072;7.036;2023-04-03T16:08:47;8.00;93.30
15426;DHT22;7812;50.072;7.036;2023-04-03T16:11:14;7.90;94.00
15426;DHT22;7812;50.072;7.036;2023-04-03T16:13:40;8.10;95.20
15426;DHT22;7812;50.072;7.036;2023-04-03T16:16:06;8.20;94.20
15426;DHT22;7812;50.072;7.036;2023-04-03T16:18:34;8.30;95.80
15426;DHT22;7812;50.072;7.036;2023-04-03T16:21:01;8.30;93.80
15426;DHT22;7812;50.072;7.036;2023-04-03T16:23:26;7.90;95.20
15426;DHT22;7812;50.072;7.036;2023-04-03T16:25:52;7.50;93.80
15426;DHT22;7812;50.072;7.036;2023-04-03T16:28:18;7.40;95.90
15426;DHT22;7812;50.072;7.036;2023-04-03T16:30:45;7.40;93.00
15426;DHT22;7812;50.072;7.036;2023-04-03T16:33:12;7.40;93.00
15426;DHT22;7812;50.072;7.036;2023-04-03T16:35:38;7.30;92.20
15426;DHT22;7812;50.072;7.036;2023-04-03T16:38:05;7.20;91.80
15426;DHT22;7812;50.072;7.036;2023-04-03T16:40:30;7.20;92.50
15426;DHT22;7812;50.072;7.036;2023-04-03T16:42:56;7.20;93.20
15426;DHT22;7812;50.072;7.036;2023-04-03T16:45:22;7.10;93.00
15426;DHT22;7812;50.072;7.036;2023-04-03T16:47:48;7.10;93.50
15426;DHT22;7812;50.072;7.036;2023-04-03T16:50:14;7.00;94.00
15426;DHT22;7812;50.072;7.036;2023-04-03T16:52:39;7.10;94.40
15426;DHT22;7812;50.072;7.036;2023-04-03T16:55:06;7.10;95.40
15426;DHT22;7812;50.072;7.036;2023-04-03T16:57:31;7.10;95.30
15426;DHT22;7812;50.072;7.036;2023-04-03T16:59:57;6.90;95.20
15426;DHT22;7812;50.072;7.036;2023-04-03T17:02:24;6.90;95.30
15426;DHT22;7812;50.072;7.036;2023-04-03T17:04:50;6.90;95.30
15426;DHT22;7812;50.072;7.036;2023-04-03T17:07:20;6.90;95.50
15426;DHT22;7812;50.072;7.036;2023-04-03T17:09:46;6.90;97.30
15426;DHT22;7812;50.072;7.036;2023-04-03T17:12:12;6.90;96.60
15426;DHT22;7812;50.072;7.036;2023-04-03T17:14:38;6.80;97.10
15426;DHT22;7812;50.072;7.036;2023-04-03T17:17:04;6.90;97.70
15426;DHT22;7812;50.072;7.036;2023-04-03T17:19:30;6.80;95.90
15426;DHT22;7812;50.072;7.036;2023-04-03T17:21:56;6.60;96.40
15426;DHT22;7812;50.072;7.036;2023-04-03T17:24:22;6.60;98.20
15426;DHT22;7812;50.072;7.036;2023-04-03T17:26:48;6.60;98.30
15426;DHT22;7812;50.072;7.036;2023-04-03T17:29:14;6.60;97.00
15426;DHT22;7812;50.072;7.036;2023-04-03T17:31:40;6.50;96.70
15426;DHT22;7812;50.072;7.036;2023-04-03T17:34:07;6.50;96.80
15426;DHT22;7812;50.072;7.036;2023-04-03T17:36:33;6.50;97.30
15426;DHT22;7812;50.072;7.036;2023-04-03T17:38:59;6.40;97.60
15426;DHT22;7812;50.072;7.036;2023-04-03T17:41:25;6.40;97.60
15426;DHT22;7812;50.072;7.036;2023-04-03T17:43:51;6.30;97.90
15426;DHT22;7812;50.072;7.036;2023-04-03T17:46:20;6.20;98.20
15426;DHT22;7812;50.072;7.036;2023-04-03T17:48:46;6.20;98.70
15426;DHT22;7812;50.072;7.036;2023-04-03T17:51:16;6.20;99.10
15426;DHT22;7812;50.072;7.036;2023-04-03T17:53:42;6.10;99.90
15426;DHT22;7812;50.072;7.036;2023-04-03T17:56:23;6.00;99.80
15426;DHT22;7812;50.072;7.036;2023-04-03T17:58:50;6.00;99.90
15426;DHT22;7812;50.072;7.036;2023-04-03T18:01:21;6.00;99.90
15426;DHT22;7812;50.072;7.036;2023-04-03T18:03:48;6.00;99.90
15426;DHT22;7812;50.072;7.036;2023-04-03T18:06:17;6.00;99.90
15426;DHT22;7812;50.072;7.036;2023-04-03T18:08:48;6.00;99.90
15426;DHT22;7812;50.072;7.036;2023-04-03T18:11:15;5.90;99.90
15426;DHT22;7812;50.072;7.036;2023-04-03T18:13:41;5.80;99.90
15426;DHT22;7812;50.072;7.036;2023-04-03T18:16:09;5.70;99.90
15426;DHT22;7812;50.072;7.036;2023-04-03T18:18:36;5.70;99.90